- বাংলা English

 ****Phone:+880 2 9135742, 9123838, 9141437 | Fax: +880 2 8118230, 9119230, 9103908 | E-mail: info@bmd.gov.bd , swc@bmd.gov.bd   | IVR: 1090 |

METAR

VGHS 280100Z 30004KT 2400HZ NSC 19/14 Q1014 TEMPO S/VIS 1800M=